Time;durP1;ratioP1;P1;durP2;ratioP2;P2;SDS_P1;SDS_P2;PMS_P1;PMS_P2;Temp;Humidity;BMP_temperature;BMP_pressure;BME280_temperature;BME280_humidity;BME280_pressure;Samples;Min_cycle;Max_cycle;Signal;HPM_P1;HPM_P2
2023/01/03 00:01:35;;;;;;;2.15;1.83;;;;;;;18.55;49.51;102450.03;5085023;28;20050;-61
2023/01/03 00:04:01;;;;;;;2.10;1.50;;;;;;;18.58;49.33;102465.94;5065980;28;20119;-61
2023/01/03 00:06:29;;;;;;;2.42;1.58;;;;;;;18.58;49.30;102462.41;5064962;28;20025;-60
2023/01/03 00:08:56;;;;;;;1.58;1.38;;;;;;;18.48;49.29;102449.72;5063658;28;20033;-60
2023/01/03 00:14:12;;;;;;;2.83;1.63;;;;;;;18.55;49.49;102471.59;5064917;28;20035;-61
2023/01/03 00:16:38;;;;;;;1.55;1.40;;;;;;;18.54;49.46;102475.28;5064519;28;20025;-60
2023/01/03 00:19:09;;;;;;;1.98;1.58;;;;;;;18.54;49.65;102479.81;5064898;28;20047;-60
2023/01/03 00:21:35;;;;;;;1.33;1.23;;;;;;;18.54;49.33;102477.13;5064494;28;20029;-60
2023/01/03 00:24:00;;;;;;;2.55;1.80;;;;;;;18.52;49.49;102479.94;5064638;28;20033;-61
2023/01/03 00:26:26;;;;;;;2.67;1.90;;;;;;;18.48;49.21;102473.09;5064261;28;20020;-60
2023/01/03 00:28:51;;;;;;;1.80;1.50;;;;;;;18.52;49.24;102479.06;5064972;28;20025;-61
2023/01/03 00:31:16;;;;;;;1.92;1.60;;;;;;;18.50;49.32;102492.66;5064547;28;20118;-61
2023/01/03 00:33:42;;;;;;;2.65;1.70;;;;;;;18.49;49.60;102489.13;5064624;28;20033;-61
2023/01/03 00:36:08;;;;;;;1.75;1.50;;;;;;;18.49;49.40;102488.28;5064779;28;20025;-61
2023/01/03 00:38:35;;;;;;;2.10;1.70;;;;;;;18.42;49.27;102473.59;5066852;28;20025;-61
2023/01/03 00:41:05;;;;;;;2.58;1.67;;;;;;;18.46;49.47;102492.06;5082913;28;20031;-60
2023/01/03 00:43:31;;;;;;;1.92;1.55;;;;;;;18.46;49.44;102491.22;5084542;28;20024;-61
2023/01/03 00:45:56;;;;;;;1.85;1.65;;;;;;;18.46;49.08;102496.59;5084311;28;20048;-61
2023/01/03 00:48:22;;;;;;;1.95;1.50;;;;;;;18.45;49.29;102497.59;5086281;28;20029;-61
2023/01/03 00:50:47;;;;;;;1.52;1.42;;;;;;;18.43;48.99;102494.16;5088776;28;20681;-61
2023/01/03 00:53:12;;;;;;;1.90;1.38;;;;;;;18.42;49.28;102498.69;5079426;28;20029;-61
2023/01/03 00:55:37;;;;;;;2.95;1.58;;;;;;;18.33;49.45;102488.69;5068369;28;20086;-61
2023/01/03 00:58:03;;;;;;;2.58;1.60;;;;;;;18.41;49.47;102496.97;5068075;28;20470;-61
2023/01/03 01:00:28;;;;;;;2.03;1.50;;;;;;;18.40;49.48;102510.59;5068307;28;20029;-61
2023/01/03 01:02:53;;;;;;;1.85;1.75;;;;;;;18.40;49.23;102513.28;5068374;28;20032;-60
2023/01/03 01:05:19;;;;;;;2.72;1.60;;;;;;;18.38;49.40;102507.16;5068345;28;20058;-60
2023/01/03 01:07:44;;;;;;;2.42;1.63;;;;;;;18.37;49.46;102509.00;5066908;28;20058;-60
2023/01/03 01:10:09;;;;;;;2.10;1.55;;;;;;;18.36;49.66;102504.59;5068506;28;20085;-60
2023/01/03 01:12:35;;;;;;;2.10;1.50;;;;;;;18.35;49.43;102500.19;5067629;28;20537;-60
2023/01/03 01:15:00;;;;;;;2.10;1.58;;;;;;;18.35;49.16;102510.97;5066657;28;20033;-60
2023/01/03 01:17:27;;;;;;;2.45;1.65;;;;;;;18.35;49.20;102512.78;5067912;28;20039;-60
2023/01/03 01:19:52;;;;;;;1.95;1.58;;;;;;;18.34;49.44;102505.69;5068141;28;20033;-60
2023/01/03 01:22:18;;;;;;;2.17;1.50;;;;;;;18.32;49.43;102511.22;5067596;28;20040;-60
2023/01/03 01:24:43;;;;;;;1.98;1.65;;;;;;;18.32;49.50;102508.50;5068004;28;20029;-60
2023/01/03 01:27:09;;;;;;;2.72;1.67;;;;;;;18.32;49.32;102518.44;5067292;28;20045;-60
2023/01/03 01:29:35;;;;;;;1.85;1.60;;;;;;;18.31;49.47;102531.03;5068067;28;20057;-59
2023/01/03 01:32:01;;;;;;;1.70;1.38;;;;;;;18.29;49.21;102527.59;5067815;28;20017;-61
2023/01/03 01:34:26;;;;;;;2.35;1.70;;;;;;;18.29;49.29;102534.84;5067679;28;20447;-60
2023/01/03 01:36:51;;;;;;;2.00;1.60;;;;;;;18.28;49.22;102536.66;5067725;28;20035;-62
2023/01/03 01:39:21;;;;;;;2.13;1.60;;;;;;;18.27;49.16;102532.28;5075849;28;20020;-61
2023/01/03 01:44:58;;;;;;;1.42;1.30;;;;;;;18.26;49.26;102535.91;5087879;28;20036;-61
2023/01/03 01:47:26;;;;;;;2.05;1.70;;;;;;;18.24;49.28;102541.44;5087593;28;20052;-61
2023/01/03 01:49:57;;;;;;;2.93;1.80;;;;;;;18.23;49.34;102542.44;5087398;28;20052;-60
2023/01/03 01:52:23;;;;;;;1.73;1.55;;;;;;;18.23;49.23;102539.75;5084378;28;20281;-60
2023/01/03 01:54:50;;;;;;;2.15;1.60;;;;;;;18.22;49.22;102548.81;5067443;28;20093;-58
2023/01/03 01:57:18;;;;;;;2.85;1.67;;;;;;;18.12;49.53;102534.34;5065736;28;20500;-60
2023/01/03 01:59:44;;;;;;;2.00;1.77;;;;;;;18.20;49.43;102542.66;5067270;28;20020;-60
2023/01/03 02:02:09;;;;;;;1.80;1.25;;;;;;;18.12;49.49;102539.75;5067237;28;20089;-60
2023/01/03 02:04:37;;;;;;;2.17;1.73;;;;;;;18.20;49.30;102549.91;5065726;28;20036;-60
2023/01/03 02:07:02;;;;;;;1.40;1.30;;;;;;;18.18;49.46;102550.03;5065862;28;20083;-60
2023/01/03 02:09:31;;;;;;;1.63;1.48;;;;;;;18.20;49.37;102557.97;5067337;28;20025;-61
2023/01/03 02:15:11;;;;;;;1.88;1.50;;;;;;;18.18;49.25;102550.03;5065906;28;20051;-61
2023/01/03 02:18:05;;;;;;;2.05;1.55;;;;;;;18.18;49.45;102546.47;5066826;28;20108;-61
2023/01/03 02:20:44;;;;;;;1.77;1.60;;;;;;;18.10;49.20;102541.72;5056140;28;20056;-61
2023/01/03 02:23:29;;;;;;;2.03;1.33;;;;;;;18.15;49.52;102542.19;5065267;28;20036;-61
2023/01/03 02:26:01;;;;;;;1.80;1.40;;;;;;;18.15;49.35;102535.97;5052185;28;20105;-60
2023/01/03 02:28:36;;;;;;;1.60;1.50;;;;;;;18.14;49.28;102534.25;5067131;28;20020;-62
2023/01/03 02:31:14;;;;;;;1.65;1.42;;;;;;;18.13;49.54;102533.38;5065635;28;20040;-61
2023/01/03 02:33:54;;;;;;;2.00;1.65;;;;;;;18.03;49.46;102516.25;5065649;28;20028;-61
2023/01/03 02:36:35;;;;;;;2.03;1.30;;;;;;;18.13;49.28;102543.28;5065274;28;20092;-62
2023/01/03 02:39:07;;;;;;;2.33;1.70;;;;;;;18.12;49.37;102538.88;5072579;28;20043;-62
2023/01/03 02:41:45;;;;;;;1.48;1.38;;;;;;;18.12;49.26;102538.88;5084990;28;20052;-62
2023/01/03 02:44:22;;;;;;;1.73;1.48;;;;;;;18.11;49.63;102543.41;5085441;28;20024;-62
2023/01/03 02:46:59;;;;;;;1.70;1.48;;;;;;;18.12;49.41;102546.97;5049437;28;20036;-62
2023/01/03 02:49:37;;;;;;;2.55;1.65;;;;;;;18.09;49.34;102545.38;5065164;28;20059;-62
2023/01/03 02:52:05;;;;;;;1.80;1.70;;;;;;;18.12;49.41;102546.97;5066444;28;20042;-62
2023/01/03 02:54:42;;;;;;;1.85;1.67;;;;;;;18.11;49.26;102550.66;5065216;28;20132;-62
2023/01/03 02:57:14;;;;;;;2.58;1.90;;;;;;;18.11;49.50;102547.94;5064834;28;20044;-62
2023/01/03 02:59:52;;;;;;;2.25;1.60;;;;;;;18.08;49.22;102540.13;5065202;28;20047;-60
2023/01/03 03:02:21;;;;;;;1.65;1.50;;;;;;;18.11;49.21;102537.19;5048083;28;20029;-61
2023/01/03 03:04:50;;;;;;;2.08;1.58;;;;;;;18.05;49.22;102529.59;5064913;28;20028;-60
2023/01/03 03:07:21;;;;;;;1.63;1.52;;;;;;;18.10;49.31;102540.88;5064743;28;20465;-61
2023/01/03 03:15:21;;;;;;;1.83;1.55;;;;;;;18.08;49.25;102532.91;5064194;28;20031;-59
2023/01/03 03:17:48;;;;;;;2.30;1.50;;;;;;;18.01;49.32;102522.75;5064310;28;20093;-59
2023/01/03 03:25:53;;;;;;;1.88;1.55;;;;;;;18.05;49.02;102534.97;5048352;28;20024;-60
2023/01/03 03:28:35;;;;;;;2.03;1.50;;;;;;;18.05;49.07;102537.66;5064350;28;20064;-60
2023/01/03 03:31:24;;;;;;;2.13;1.70;;;;;;;18.04;49.47;102539.50;5064226;28;20029;-60
2023/01/03 03:33:55;;;;;;;2.88;1.50;;;;;;;18.04;48.81;102544.03;5064113;28;20029;-60
2023/01/03 03:36:26;;;;;;;2.75;1.55;;;;;;;18.03;49.16;102545.00;5065333;28;20159;-61
2023/01/03 03:38:51;;;;;;;2.65;1.40;;;;;;;18.02;49.10;102537.94;5070057;28;20023;-60
2023/01/03 03:47:20;;;;;;;1.70;1.60;;;;;;;18.01;49.10;102549.66;5066992;28;20044;-60
2023/01/03 03:49:48;;;;;;;2.05;1.50;;;;;;;17.99;49.14;102553.31;5063813;28;20057;-60
2023/01/03 03:52:16;;;;;;;2.10;1.57;;;;;;;17.99;49.16;102561.41;5063924;28;20031;-60
2023/01/03 03:54:51;;;;;;;2.05;1.70;;;;;;;17.98;49.10;102562.38;5063975;28;20028;-61
2023/01/03 03:57:39;;;;;;;1.60;1.50;;;;;;;17.98;48.87;102561.53;5063960;28;20028;-60
2023/01/03 04:00:11;;;;;;;1.83;1.60;;;;;;;17.97;49.10;102566.06;5065100;28;20032;-60
2023/01/03 04:02:36;;;;;;;1.95;1.75;;;;;;;17.91;48.98;102552.22;5063812;28;20481;-60
2023/01/03 04:05:04;;;;;;;1.67;1.58;;;;;;;17.93;49.07;102558.34;5063796;28;20033;-60
2023/01/03 04:07:30;;;;;;;2.13;1.57;;;;;;;17.96;49.00;102561.63;5064750;28;20059;-61
2023/01/03 04:09:55;;;;;;;2.13;1.63;;;;;;;17.96;48.81;102560.78;5065083;28;20037;-61
2023/01/03 04:12:20;;;;;;;1.90;1.70;;;;;;;17.95;48.88;102559.94;5063192;28;20032;-61
2023/01/03 04:14:46;;;;;;;2.22;1.70;;;;;;;17.94;48.68;102562.75;5064471;28;20043;-60
2023/01/03 04:17:11;;;;;;;1.70;1.42;;;;;;;17.92;49.03;102568.25;5064678;28;20078;-60
2023/01/03 04:19:36;;;;;;;1.73;1.63;;;;;;;17.94;48.60;102582.44;5065104;28;20043;-61
2023/01/03 04:22:01;;;;;;;2.63;1.80;;;;;;;17.94;48.55;102581.59;5061390;28;20025;-61
2023/01/03 04:24:27;;;;;;;2.08;1.70;;;;;;;17.93;48.93;102578.06;5044325;28;20029;-61
2023/01/03 04:26:52;;;;;;;1.95;1.58;;;;;;;17.92;48.64;102587.06;5057264;28;20031;-61
2023/01/03 04:29:17;;;;;;;2.28;1.83;;;;;;;17.93;48.49;102582.59;5064848;28;20025;-61
2023/01/03 04:31:42;;;;;;;1.80;1.50;;;;;;;17.93;48.79;102593.34;5064440;28;20029;-61
2023/01/03 04:34:08;;;;;;;2.17;1.80;;;;;;;17.92;48.71;102584.38;5064617;28;20036;-61
2023/01/03 04:36:33;;;;;;;1.67;1.52;;;;;;;17.92;48.70;102583.53;5064184;28;20071;-61
2023/01/03 04:38:58;;;;;;;2.40;1.67;;;;;;;17.90;48.47;102580.97;5070126;28;20034;-61
2023/01/03 04:41:24;;;;;;;1.50;1.40;;;;;;;17.91;48.58;102581.81;5084549;28;20025;-61
2023/01/03 04:44:01;;;;;;;1.60;1.50;;;;;;;17.92;48.75;102586.22;5084533;28;20031;-61
2023/01/03 04:46:32;;;;;;;1.48;1.38;;;;;;;17.91;48.70;102580.00;5084304;28;20032;-61
2023/01/03 04:48:58;;;;;;;1.63;1.40;;;;;;;17.90;48.84;102585.50;5084542;28;20445;-61
2023/01/03 04:51:23;;;;;;;2.55;2.08;;;;;;;17.90;48.50;102582.81;5084405;28;20028;-61
2023/01/03 04:53:49;;;;;;;1.95;1.75;;;;;;;17.90;48.64;102575.59;5084413;28;20044;-61
2023/01/03 04:56:14;;;;;;;1.90;1.67;;;;;;;17.90;48.64;102580.97;5083850;28;20050;-60
2023/01/03 04:58:39;;;;;;;2.00;1.73;;;;;;;17.90;48.45;102591.75;5084590;28;20466;-60
2023/01/03 05:01:08;;;;;;;2.38;1.60;;;;;;;17.89;48.47;102586.50;5084251;28;20028;-60
2023/01/03 05:03:34;;;;;;;1.50;1.40;;;;;;;17.91;48.18;102587.22;5063989;28;20175;-62
2023/01/03 05:06:04;;;;;;;1.92;1.75;;;;;;;17.84;48.49;102575.22;5054673;28;20520;-62
2023/01/03 05:08:29;;;;;;;2.30;1.75;;;;;;;17.92;48.41;102583.53;5064022;28;20101;-62
2023/01/03 05:10:55;;;;;;;2.58;2.38;;;;;;;17.92;48.41;102580.84;5064247;28;20021;-63
2023/01/03 05:13:20;;;;;;;2.20;1.90;;;;;;;17.89;48.37;102576.56;5063230;28;20040;-63
2023/01/03 05:15:46;;;;;;;1.73;1.55;;;;;;;17.91;48.56;102584.53;5063985;28;20085;-62
2023/01/03 05:18:11;;;;;;;2.10;1.90;;;;;;;17.92;48.50;102581.69;5063988;28;20025;-62
2023/01/03 05:26:09;;;;;;;2.20;2.00;;;;;;;17.92;48.30;102583.53;5063819;28;20024;-62
2023/01/03 05:28:35;;;;;;;2.50;1.98;;;;;;;17.91;48.55;102585.38;5062476;28;20552;-62
2023/01/03 05:31:00;;;;;;;2.47;2.10;;;;;;;17.92;48.51;102592.47;5064079;28;20036;-62
2023/01/03 05:33:26;;;;;;;2.15;1.90;;;;;;;17.94;48.41;102587.84;5064204;28;20029;-62
2023/01/03 05:35:51;;;;;;;2.40;2.08;;;;;;;17.92;48.37;102589.78;5067455;28;20032;-61
2023/01/03 05:38:16;;;;;;;2.22;2.00;;;;;;;17.94;48.64;102584.28;5067406;28;20566;-61
2023/01/03 05:40:42;;;;;;;2.38;2.17;;;;;;;17.96;48.62;102585.00;5085351;28;20404;-60
2023/01/03 05:43:08;;;;;;;4.90;2.20;;;;;;;17.95;48.56;102594.91;5049040;28;20033;-61
2023/01/03 05:45:37;;;;;;;2.17;1.90;;;;;;;17.97;48.58;102589.44;5054771;28;20037;-61
2023/01/03 05:48:03;;;;;;;2.65;2.35;;;;;;;17.98;48.80;102594.69;5059308;28;20025;-61
2023/01/03 05:50:28;;;;;;;2.20;1.90;;;;;;;17.98;48.58;102600.06;5066693;28;20055;-61
2023/01/03 05:52:54;;;;;;;3.28;2.30;;;;;;;17.99;48.83;102599.09;5066434;28;20492;-61
2023/01/03 05:55:19;;;;;;;3.08;2.42;;;;;;;17.99;48.98;102595.53;5066880;28;20044;-61
2023/01/03 05:57:46;;;;;;;3.42;2.10;;;;;;;18.01;48.77;102590.91;5066493;28;20036;-61
2023/01/03 06:00:12;;;;;;;2.38;2.17;;;;;;;18.02;48.75;102594.44;5064085;28;20084;-61
2023/01/03 06:02:37;;;;;;;2.38;2.13;;;;;;;18.01;48.92;102595.41;5066503;28;20017;-61
2023/01/03 06:05:03;;;;;;;2.40;2.20;;;;;;;18.04;48.93;102603.25;5066072;28;20059;-61
2023/01/03 06:07:28;;;;;;;2.83;2.10;;;;;;;18.04;48.87;102587.94;5064550;28;20031;-61
2023/01/03 06:09:54;;;;;;;2.50;2.15;;;;;;;18.05;48.70;102591.50;5066684;28;20029;-61
2023/01/03 06:12:19;;;;;;;2.40;1.95;;;;;;;18.06;48.63;102585.16;5065666;28;20055;-61
2023/01/03 06:14:44;;;;;;;2.40;2.20;;;;;;;18.07;48.83;102584.16;5066207;28;20021;-60
2023/01/03 06:19:53;;;;;;;2.63;2.17;;;;;;;18.08;48.91;102581.34;5066874;28;20104;-61
2023/01/03 06:22:18;;;;;;;3.13;2.20;;;;;;;18.09;49.17;102579.50;5063385;28;20029;-61
2023/01/03 06:24:44;;;;;;;2.15;1.92;;;;;;;18.09;48.85;102580.34;5068309;28;20024;-61
2023/01/03 06:27:09;;;;;;;3.67;2.13;;;;;;;18.10;48.63;102578.56;5064503;28;20053;-61
2023/01/03 06:29:34;;;;;;;2.88;1.98;;;;;;;18.10;48.97;102567.78;5066481;28;20029;-61
2023/01/03 06:31:59;;;;;;;2.72;2.03;;;;;;;18.11;49.12;102580.25;5067782;28;20055;-60
2023/01/03 06:34:25;;;;;;;3.28;2.30;;;;;;;18.11;49.18;102588.34;5065951;28;20028;-60
2023/01/03 06:36:50;;;;;;;3.03;2.60;;;;;;;18.10;49.16;102584.78;5065931;28;20064;-60
2023/01/03 06:39:15;;;;;;;2.10;1.90;;;;;;;18.11;48.99;102586.50;5066523;28;20029;-61
2023/01/03 06:41:41;;;;;;;2.17;1.90;;;;;;;18.13;49.12;102589.91;5065672;28;20028;-60
2023/01/03 06:44:06;;;;;;;2.55;2.22;;;;;;;18.08;49.00;102586.72;5065895;28;20021;-60
2023/01/03 06:54:45;;;;;;;2.83;2.15;;;;;;;18.15;49.07;102581.72;5064277;28;20107;-60
2023/01/03 06:57:11;;;;;;;2.08;1.92;;;;;;;18.11;49.10;102572.19;5065323;28;20013;-60
2023/01/03 06:59:36;;;;;;;2.70;2.40;;;;;;;18.14;49.22;102575.50;5066120;28;20036;-60
2023/01/03 07:02:04;;;;;;;3.65;2.80;;;;;;;18.12;48.98;102574.75;5065667;28;20430;-60
2023/01/03 07:04:29;;;;;;;2.60;2.40;;;;;;;18.15;49.09;102577.19;5065610;28;20020;-61
2023/01/03 07:06:54;;;;;;;2.53;2.20;;;;;;;18.13;49.08;102571.06;5065541;28;20071;-61
2023/01/03 07:09:20;;;;;;;2.50;2.28;;;;;;;18.16;48.92;102583.44;5065646;28;20017;-60
2023/01/03 07:11:45;;;;;;;3.03;2.53;;;;;;;18.14;49.09;102577.31;5065049;28;20029;-60
2023/01/03 07:14:11;;;;;;;2.72;2.20;;;;;;;18.11;49.06;102572.19;5065271;28;20033;-60
2023/01/03 07:16:38;;;;;;;2.40;2.20;;;;;;;18.16;48.97;102581.59;5064525;28;20040;-59
2023/01/03 07:19:05;;;;;;;2.58;2.28;;;;;;;18.15;49.32;102573.66;5065167;28;20080;-60
2023/01/03 07:21:32;;;;;;;3.33;2.40;;;;;;;18.16;49.39;102573.50;5062696;28;20029;-60
2023/01/03 07:24:00;;;;;;;2.97;2.63;;;;;;;18.17;49.37;102568.97;5061997;28;20088;-60
2023/01/03 07:26:26;;;;;;;3.35;2.53;;;;;;;18.17;48.92;102582.44;5064714;28;20021;-58
2023/01/03 07:28:52;;;;;;;2.40;2.20;;;;;;;18.18;49.20;102574.25;5065144;28;20017;-61
2023/01/03 07:31:17;;;;;;;3.42;2.47;;;;;;;18.17;48.80;102572.53;5064742;28;20025;-61
2023/01/03 07:33:44;;;;;;;3.60;2.78;;;;;;;18.17;49.35;102569.84;5063629;28;20021;-61
2023/01/03 07:36:10;;;;;;;3.03;2.70;;;;;;;18.16;49.02;102567.28;5065007;28;20020;-61
2023/01/03 07:38:36;;;;;;;4.15;2.33;;;;;;;18.10;49.00;102557.88;5065496;28;20052;-61
2023/01/03 07:41:03;;;;;;;3.92;2.83;;;;;;;18.18;49.25;102570.69;5064841;28;20036;-61
2023/01/03 07:43:37;;;;;;;2.88;2.58;;;;;;;18.17;49.08;102577.06;5064109;28;20048;-61
2023/01/03 07:46:17;;;;;;;5.07;2.50;;;;;;;18.25;49.04;102580.00;5064444;28;20028;-60
2023/01/03 07:48:43;;;;;;;5.47;2.80;;;;;;;18.27;48.69;102575.34;5064534;28;20049;-61
2023/01/03 07:51:10;;;;;;;3.50;2.38;;;;;;;18.29;49.07;102580.59;5064688;28;20064;-61
2023/01/03 07:53:36;;;;;;;2.88;2.42;;;;;;;18.29;48.92;102586.00;5064487;28;20041;-61
2023/01/03 07:56:07;;;;;;;3.50;2.38;;;;;;;18.32;48.77;102588.44;5065104;28;20082;-61
2023/01/03 07:58:32;;;;;;;3.30;2.33;;;;;;;18.33;48.76;102584.75;5061246;28;20369;-61
2023/01/03 08:01:28;;;;;;;3.17;2.80;;;;;;;18.31;48.83;102587.59;5063484;28;20017;-61
2023/01/03 08:03:54;;;;;;;5.35;3.00;;;;;;;18.28;48.76;102584.28;5055844;28;20112;-61
2023/01/03 08:06:21;;;;;;;4.80;2.70;;;;;;;18.28;49.12;102584.28;5056003;28;20138;-61
2023/01/03 08:13:16;;;;;;;2.38;2.10;;;;;;;18.21;49.10;102567.75;5062610;28;20021;-61
2023/01/03 08:14:20;;;;;;;3.90;2.58;;;;;;;18.32;49.13;102583.91;5062314;28;20032;-59
2023/01/03 08:16:45;;;;;;;5.82;3.05;;;;;;;18.35;48.78;102582.78;5062831;28;20029;-60
2023/01/03 08:19:10;;;;;;;3.53;2.80;;;;;;;18.40;49.37;102577.91;5063849;28;20033;-60
2023/01/03 08:21:36;;;;;;;5.53;3.17;;;;;;;18.39;49.58;102566.28;5063711;28;20028;-60
2023/01/03 08:24:01;;;;;;;3.72;3.13;;;;;;;18.41;49.39;102576.91;5058970;28;20044;-60
2023/01/03 08:26:27;;;;;;;3.40;2.80;;;;;;;18.41;49.52;102585.00;5062802;28;20381;-60
2023/01/03 08:28:52;;;;;;;4.88;3.17;;;;;;;18.41;49.90;102583.16;5063923;28;20509;-60
2023/01/03 08:31:20;;;;;;;3.97;2.95;;;;;;;18.41;49.20;102575.06;5063082;28;20367;-67
2023/01/03 08:33:52;;;;;;;3.72;2.92;;;;;;;18.45;49.22;102587.31;5063472;28;20017;-61
2023/01/03 08:36:18;;;;;;;3.15;2.80;;;;;;;18.40;49.28;102577.91;5063372;28;20087;-62
2023/01/03 08:38:49;;;;;;;4.95;3.17;;;;;;;18.51;49.38;102587.78;5062042;28;20486;-60
2023/01/03 08:41:15;;;;;;;3.72;2.78;;;;;;;18.52;49.12;102585.00;5064080;28;20488;-61
2023/01/03 08:43:42;;;;;;;3.80;3.15;;;;;;;18.57;49.33;102580.06;5092365;28;20604;-61
2023/01/03 08:46:10;;;;;;;5.65;2.90;;;;;;;18.61;49.40;102586.06;5063248;28;20097;-61
2023/01/03 08:48:35;;;;;;;3.85;2.80;;;;;;;18.61;49.24;102586.06;5095211;28;20076;-61
2023/01/03 08:51:00;;;;;;;4.35;3.00;;;;;;;18.65;48.89;102595.63;5063792;28;20029;-65
2023/01/03 08:53:27;;;;;;;5.15;2.80;;;;;;;18.65;48.95;102603.69;5078711;28;20021;-60
2023/01/03 08:55:53;;;;;;;2.75;2.40;;;;;;;18.67;48.93;102626.81;5063905;28;20032;-60
2023/01/03 08:58:18;;;;;;;3.08;2.45;;;;;;;18.66;48.80;102624.25;5063274;28;20029;-59
2023/01/03 09:00:43;;;;;;;3.20;2.63;;;;;;;18.68;49.06;102615.06;5063290;28;20020;-61
2023/01/03 09:03:08;;;;;;;3.88;2.70;;;;;;;18.67;49.13;102602.56;5063664;28;20066;-65
2023/01/03 09:05:34;;;;;;;4.72;3.33;;;;;;;18.68;49.00;102604.28;5063333;28;20101;-59
2023/01/03 09:07:59;;;;;;;3.55;3.15;;;;;;;18.69;48.63;102603.34;5063390;28;20035;-61
2023/01/03 09:10:25;;;;;;;3.55;2.65;;;;;;;18.69;48.46;102600.66;5067213;28;20028;-64
2023/01/03 09:12:50;;;;;;;3.92;2.60;;;;;;;18.69;48.53;102597.97;5066982;28;20461;-64
2023/01/03 09:15:16;;;;;;;4.63;2.97;;;;;;;18.73;48.42;102603.94;5065951;28;20465;-61
2023/01/03 09:17:44;;;;;;;4.85;2.95;;;;;;;18.71;48.15;102595.13;5058933;28;20067;-59
2023/01/03 09:20:10;;;;;;;5.10;2.70;;;;;;;18.71;47.82;102601.38;5052271;28;20027;-58
2023/01/03 09:22:36;;;;;;;3.53;3.05;;;;;;;18.69;48.24;102611.44;5065090;28;20461;-60
2023/01/03 09:25:01;;;;;;;5.97;3.13;;;;;;;18.67;48.05;102604.41;5061305;28;20036;-60
2023/01/03 09:27:27;;;;;;;6.10;2.80;;;;;;;18.67;48.19;102607.97;5062540;28;20025;-62
2023/01/03 09:29:52;;;;;;;8.15;2.67;;;;;;;18.66;48.46;102605.41;5065677;28;20064;-63
2023/01/03 09:32:17;;;;;;;4.57;2.88;;;;;;;18.67;47.89;102605.28;5063772;28;20025;-60
2023/01/03 09:34:43;;;;;;;3.35;2.75;;;;;;;18.62;48.24;102596.72;5065018;28;20079;-61
2023/01/03 09:37:08;;;;;;;3.28;2.70;;;;;;;18.66;48.21;102597.31;5062457;28;20074;-60
2023/01/03 09:39:33;;;;;;;3.30;2.47;;;;;;;18.64;48.28;102604.66;5065145;28;20033;-61
2023/01/03 09:44:43;;;;;;;5.88;3.22;;;;;;;18.65;48.14;102592.94;5063844;28;20036;-56
2023/01/03 09:47:16;;;;;;;5.05;2.90;;;;;;;18.62;48.21;102591.31;5096423;28;20033;-60
2023/01/03 09:49:42;;;;;;;3.60;2.60;;;;;;;18.64;48.07;102599.28;5059808;28;20041;-59
2023/01/03 10:03:44;;;;;;;2.67;2.30;;;;;;;18.66;47.84;102597.31;5063364;28;20027;-60
2023/01/03 10:06:49;;;;;;;2.65;2.10;;;;;;;18.67;48.18;102601.72;5063715;28;20031;-61
2023/01/03 10:09:53;;;;;;;3.60;2.40;;;;;;;18.66;48.09;102598.19;5062040;28;20044;-60
2023/01/03 10:12:37;;;;;;;2.60;2.38;;;;;;;18.66;48.07;102600.03;5064631;28;20055;-61
2023/01/03 10:15:30;;;;;;;2.55;2.30;;;;;;;18.65;48.07;102603.69;5058537;28;20470;-60
2023/01/03 10:18:13;;;;;;;3.28;2.50;;;;;;;18.64;48.11;102599.28;5066361;28;20465;-61
2023/01/03 10:20:45;;;;;;;3.00;2.30;;;;;;;18.62;48.23;102595.88;5066305;28;20031;-61
2023/01/03 10:23:11;;;;;;;2.83;2.35;;;;;;;18.61;48.21;102594.16;5093749;28;20024;-61
2023/01/03 10:25:38;;;;;;;2.53;2.17;;;;;;;18.51;48.16;102580.56;5064641;28;20025;-61
2023/01/03 10:28:19;;;;;;;2.35;2.15;;;;;;;18.62;47.92;102591.31;5065940;28;20055;-61
2023/01/03 10:30:53;;;;;;;3.00;2.38;;;;;;;18.63;47.94;102592.19;5066413;28;20028;-60
2023/01/03 10:33:28;;;;;;;2.95;2.45;;;;;;;18.62;47.89;102593.16;5065926;28;20492;-59
2023/01/03 10:35:55;;;;;;;3.28;2.10;;;;;;;18.62;47.80;102588.63;5098579;28;20101;-61
2023/01/03 10:38:21;;;;;;;2.65;2.22;;;;;;;18.65;48.04;102591.09;5065698;28;20053;-60
2023/01/03 10:40:57;;;;;;;4.97;2.47;;;;;;;18.67;47.72;102580.16;5066213;28;20013;-60
2023/01/03 10:43:32;;;;;;;3.88;2.05;;;;;;;18.68;48.25;102574.66;5064105;28;20028;-59
2023/01/03 10:46:01;;;;;;;3.53;1.98;;;;;;;18.69;48.05;102562.94;5065973;28;20029;-61
2023/01/03 10:48:40;;;;;;;3.13;2.33;;;;;;;18.70;48.17;102559.25;5065735;28;20021;-61
2023/01/03 10:51:23;;;;;;;3.40;2.28;;;;;;;18.73;48.13;102555.44;5066076;28;20076;-61
2023/01/03 10:53:51;;;;;;;2.35;2.03;;;;;;;18.75;48.25;102561.56;5098416;28;20025;-61
2023/01/03 10:56:17;;;;;;;2.30;1.80;;;;;;;18.76;47.87;102557.03;5098026;28;20104;-61
2023/01/03 10:58:42;;;;;;;4.53;2.22;;;;;;;18.77;48.12;102564.13;5062991;28;20025;-60
2023/01/03 11:01:23;;;;;;;3.10;1.95;;;;;;;18.78;47.90;102561.31;5064112;28;20025;-61
2023/01/03 11:04:15;;;;;;;3.22;1.65;;;;;;;18.80;47.85;102556.66;5065250;28;20028;-63
2023/01/03 11:07:02;;;;;;;2.72;1.98;;;;;;;18.81;47.96;102555.66;5065316;28;20025;-61
2023/01/03 11:09:35;;;;;;;2.72;2.28;;;;;;;18.82;47.93;102548.41;5065707;28;20384;-63
2023/01/03 11:12:11;;;;;;;3.10;2.13;;;;;;;18.84;48.00;102541.06;5063963;28;20028;-63
2023/01/03 11:14:37;;;;;;;3.40;1.80;;;;;;;18.82;47.87;102543.91;5065154;28;20025;-60
2023/01/03 11:17:04;;;;;;;2.65;2.00;;;;;;;18.85;48.08;102549.03;5063486;28;20052;-62
2023/01/03 11:19:31;;;;;;;2.25;1.77;;;;;;;18.87;47.72;102549.75;5065274;28;20367;-63
2023/01/03 11:22:13;;;;;;;3.30;1.77;;;;;;;18.88;48.17;102553.31;5063630;28;20025;-62
2023/01/03 11:24:59;;;;;;;1.90;1.70;;;;;;;18.89;47.84;102553.16;5063140;28;20063;-62
2023/01/03 11:27:44;;;;;;;3.35;2.10;;;;;;;18.88;48.16;102547.91;5063497;28;20031;-65
2023/01/03 11:30:17;;;;;;;2.10;1.75;;;;;;;18.85;48.01;102540.94;5065448;28;20101;-60
2023/01/03 11:32:42;;;;;;;3.05;2.25;;;;;;;18.86;47.82;102539.09;5063057;28;20017;-62
2023/01/03 11:35:26;;;;;;;2.53;2.17;;;;;;;18.85;47.99;102540.94;5064694;28;20009;-57
2023/01/03 11:38:04;;;;;;;3.30;1.80;;;;;;;18.85;47.80;102549.03;5064824;28;20040;-61
2023/01/03 11:40:51;;;;;;;4.05;2.00;;;;;;;18.85;48.11;102538.25;5065036;28;20088;-62
2023/01/03 11:43:38;;;;;;;3.42;1.60;;;;;;;18.84;47.99;102541.94;5065023;28;20032;-61
2023/01/03 11:46:12;;;;;;;3.00;1.90;;;;;;;18.81;47.98;102538.63;5076373;28;20033;-62
2023/01/03 11:48:37;;;;;;;2.35;1.90;;;;;;;18.81;48.08;102535.94;5064696;28;20063;-62
2023/01/03 11:51:11;;;;;;;3.55;1.90;;;;;;;18.80;47.80;102528.84;5063895;28;20032;-62
2023/01/03 11:53:56;;;;;;;2.55;1.80;;;;;;;18.77;47.92;102521.00;5064402;28;20049;-62
2023/01/03 11:56:28;;;;;;;2.90;1.98;;;;;;;18.75;47.82;102520.28;5065219;28;20029;-62
2023/01/03 11:59:12;;;;;;;4.15;1.80;;;;;;;18.80;47.78;102531.53;5061754;28;20563;-61
2023/01/03 12:02:02;;;;;;;2.42;1.60;;;;;;;18.81;47.83;102534.09;5064607;28;20052;-62
2023/01/03 12:04:30;;;;;;;5.43;1.80;;;;;;;18.76;48.13;102528.25;5064137;28;20104;-61
2023/01/03 12:07:21;;;;;;;2.58;1.55;;;;;;;18.79;48.03;102525.28;5063299;28;20056;-61
2023/01/03 12:09:58;;;;;;;1.95;1.63;;;;;;;18.77;48.03;102511.06;5053828;28;20025;-62
2023/01/03 12:12:32;;;;;;;2.35;1.67;;;;;;;18.76;48.17;102517.47;5062568;28;20068;-63
2023/01/03 12:15:01;;;;;;;2.55;1.58;;;;;;;18.77;48.31;102518.31;5064016;28;20021;-61
2023/01/03 12:17:32;;;;;;;3.45;1.73;;;;;;;18.77;48.37;102519.16;5064153;28;20047;-61
2023/01/03 12:20:10;;;;;;;2.22;1.73;;;;;;;18.76;48.23;102522.84;5064334;28;20044;-62
2023/01/03 12:22:36;;;;;;;3.47;1.65;;;;;;;18.78;48.11;102531.69;5057293;28;20033;-61
2023/01/03 12:25:27;;;;;;;2.58;2.08;;;;;;;18.80;48.01;102523.44;5096353;28;20107;-60
2023/01/03 12:28:00;;;;;;;2.15;1.75;;;;;;;18.78;48.16;102522.75;5055054;28;20059;-60
2023/01/03 12:30:55;;;;;;;2.35;1.60;;;;;;;18.78;48.16;102520.06;5063072;28;20124;-62
2023/01/03 12:33:32;;;;;;;2.80;2.53;;;;;;;18.76;48.37;102514.78;5041095;28;20062;-61
2023/01/03 12:36:01;;;;;;;1.88;1.50;;;;;;;18.75;48.27;102507.69;5064067;28;20092;-59